Time;durP1;ratioP1;P1;durP2;ratioP2;P2;SDS_P1;SDS_P2;PMS_P1;PMS_P2;Temp;Humidity;BMP_temperature;BMP_pressure;BME280_temperature;BME280_humidity;BME280_pressure;Samples;Min_cycle;Max_cycle;Signal;HPM_P1;HPM_P2
2022/09/24 00:00:51;;;;;;;39.78;18.60;;;13.40;99.90;;;;;;5129527;28;20078;-76
2022/09/24 00:03:22;;;;;;;33.00;16.55;;;13.40;99.90;;;;;;5110598;27;20077;-74
2022/09/24 00:05:48;;;;;;;36.08;17.65;;;13.40;99.90;;;;;;5115024;27;20081;-76
2022/09/24 00:08:18;;;;;;;40.17;18.63;;;13.40;99.90;;;;;;5098775;27;20126;-73
2022/09/24 00:10:46;;;;;;;37.65;17.00;;;13.50;99.90;;;;;;5133456;27;20043;-76
2022/09/24 00:13:15;;;;;;;37.05;17.17;;;13.50;99.90;;;;;;5133077;27;20046;-74
2022/09/24 00:15:44;;;;;;;33.53;17.75;;;13.50;99.90;;;;;;5097637;27;20050;-73
2022/09/24 00:18:11;;;;;;;40.97;18.23;;;13.50;99.90;;;;;;5123186;27;20547;-73
2022/09/24 00:20:38;;;;;;;33.53;17.73;;;13.50;99.90;;;;;;5133488;27;20061;-73
2022/09/24 00:23:06;;;;;;;36.58;17.30;;;13.50;99.90;;;;;;5132836;27;20050;-73
2022/09/24 00:28:16;;;;;;;36.10;17.25;;;13.50;99.90;;;;;;5105727;28;20375;-74
2022/09/24 00:30:43;;;;;;;33.88;16.83;;;13.40;99.90;;;;;;5112453;28;20123;-75
2022/09/24 00:33:09;;;;;;;35.78;17.48;;;13.50;99.90;;;;;;5110117;28;20055;-74
2022/09/24 00:35:35;;;;;;;;;;;13.40;99.90;;;;;;5108018;27;20690;-74
2022/09/24 00:38:01;;;;;;;34.20;17.45;;;13.40;99.90;;;;;;5114479;27;20130;-76
2022/09/24 00:40:36;;;;;;;39.55;18.67;;;13.40;99.90;;;;;;5126373;27;20078;-74
2022/09/24 00:43:19;;;;;;;36.30;17.25;;;13.40;99.90;;;;;;5116026;27;20127;-74
2022/09/24 00:45:45;;;;;;;37.00;19.05;;;13.40;99.90;;;;;;5114899;27;20077;-74
2022/09/24 00:48:11;;;;;;;40.00;19.25;;;13.40;99.90;;;;;;5111898;27;20884;-76
2022/09/24 00:50:37;;;;;;;36.88;18.50;;;13.40;99.90;;;;;;5133242;27;20039;-74
2022/09/24 00:53:08;;;;;;;38.63;19.05;;;13.40;99.90;;;;;;5113190;27;20491;-75
2022/09/24 00:55:37;;;;;;;41.28;18.80;;;13.50;99.90;;;;;;5111738;27;20047;-74
2022/09/24 00:58:06;;;;;;;34.45;17.92;;;13.40;99.90;;;;;;5113593;27;20047;-75
2022/09/24 01:00:32;;;;;;;41.72;19.70;;;13.50;99.90;;;;;;5114776;27;20055;-74
2022/09/24 01:03:08;;;;;;;36.67;18.55;;;13.40;99.90;;;;;;5112117;27;20108;-75
2022/09/24 01:05:36;;;;;;;39.08;18.75;;;13.40;99.90;;;;;;5114599;27;20051;-74
2022/09/24 01:08:02;;;;;;;36.92;18.67;;;13.40;99.90;;;;;;5132042;27;20055;-75
2022/09/24 01:10:47;;;;;;;44.70;19.65;;;13.40;99.90;;;;;;5132745;27;20047;-75
2022/09/24 01:13:58;;;;;;;38.42;18.83;;;13.40;99.90;;;;;;5113794;27;20195;-76
2022/09/24 01:16:26;;;;;;;37.80;18.92;;;13.40;99.90;;;;;;5103118;27;20047;-74
2022/09/24 01:19:04;;;;;;;41.17;18.02;;;13.40;99.90;;;;;;5112355;27;20559;-77
2022/09/24 01:21:51;;;;;;;39.40;18.98;;;13.40;99.90;;;;;;5114249;27;20422;-74
2022/09/24 01:24:17;;;;;;;;;;;13.40;99.90;;;;;;5132554;27;20124;-73
2022/09/24 01:27:02;;;;;;;39.95;18.70;;;13.40;99.90;;;;;;5132143;27;19961;-74
2022/09/24 01:30:05;;;;;;;38.22;17.85;;;13.30;99.90;;;;;;5114184;27;20065;-74
2022/09/24 01:32:52;;;;;;;40.85;19.38;;;13.30;99.90;;;;;;5130200;27;20495;-74
2022/09/24 01:35:23;;;;;;;39.95;18.25;;;13.30;99.90;;;;;;5114519;27;20039;-74
2022/09/24 01:38:01;;;;;;;36.10;17.45;;;13.40;99.90;;;;;;5107239;27;20053;-74
2022/09/24 01:40:29;;;;;;;36.88;18.65;;;13.30;99.90;;;;;;5093387;28;20104;-76
2022/09/24 01:42:57;;;;;;;43.45;19.30;;;13.30;99.90;;;;;;5110809;28;20105;-77
2022/09/24 01:45:25;;;;;;;40.72;19.40;;;13.30;99.90;;;;;;5111890;28;20376;-74
2022/09/24 01:47:51;;;;;;;37.15;17.92;;;13.30;99.90;;;;;;5125101;27;20078;-77
2022/09/24 01:50:18;;;;;;;38.38;17.75;;;13.30;99.90;;;;;;5113816;27;20075;-74
2022/09/24 01:53:01;;;;;;;34.90;17.98;;;13.30;99.90;;;;;;5132376;27;20035;-75
2022/09/24 01:55:34;;;;;;;36.50;17.83;;;13.30;99.90;;;;;;5142857;27;20118;-75
2022/09/24 01:58:10;;;;;;;38.05;18.52;;;13.30;99.90;;;;;;5131461;27;20498;-74
2022/09/24 02:00:42;;;;;;;42.75;18.58;;;13.30;99.90;;;;;;5113817;27;20043;-75
2022/09/24 02:03:17;;;;;;;39.08;18.45;;;13.40;99.90;;;;;;5129179;27;20495;-74
2022/09/24 02:05:57;;;;;;;39.15;17.73;;;13.30;99.90;;;;;;5113383;27;20114;-74
2022/09/24 02:08:32;;;;;;;44.55;20.42;;;13.30;99.90;;;;;;5131705;27;20049;-74
2022/09/24 02:11:05;;;;;;;37.78;17.63;;;13.30;99.90;;;;;;5112751;27;20031;-77
2022/09/24 02:13:39;;;;;;;35.25;16.67;;;13.30;99.90;;;;;;5131730;27;20051;-74
2022/09/24 02:16:08;;;;;;;43.72;18.65;;;13.30;99.90;;;;;;5112051;27;20038;-75
2022/09/24 02:18:41;;;;;;;38.17;18.67;;;13.30;99.90;;;;;;5130878;27;20035;-75
2022/09/24 02:21:11;;;;;;;38.47;18.67;;;13.20;99.90;;;;;;5112246;27;20039;-74
2022/09/24 02:23:43;;;;;;;42.20;18.90;;;13.20;99.90;;;;;;5093604;28;20044;-75
2022/09/24 02:26:10;;;;;;;37.63;18.55;;;13.30;99.90;;;;;;5111667;27;20053;-74
2022/09/24 02:28:36;;;;;;;35.05;17.35;;;13.20;99.90;;;;;;5130493;27;20053;-76
2022/09/24 02:31:07;;;;;;;40.33;18.30;;;13.20;99.90;;;;;;5129502;27;20118;-77
2022/09/24 02:36:23;;;;;;;41.10;19.63;;;13.20;99.90;;;;;;5109659;27;20055;-74
2022/09/24 02:38:51;;;;;;;41.80;18.83;;;13.20;99.90;;;;;;5131048;27;20047;-74
2022/09/24 02:41:18;;;;;;;37.78;19.67;;;13.20;99.90;;;;;;5094356;28;20517;-74
2022/09/24 02:43:44;;;;;;;44.95;18.83;;;13.20;99.90;;;;;;5112760;27;20520;-74
2022/09/24 02:46:09;;;;;;;40.22;19.90;;;13.20;99.90;;;;;;5091278;27;20134;-74
2022/09/24 02:48:36;;;;;;;45.53;19.95;;;13.20;99.90;;;;;;5111868;28;20043;-74
2022/09/24 02:51:03;;;;;;;40.15;19.20;;;13.20;99.90;;;;;;5130265;27;20054;-78
2022/09/24 02:53:29;;;;;;;41.67;18.48;;;13.20;99.90;;;;;;5114735;27;20051;-74
2022/09/24 02:55:56;;;;;;;44.38;20.63;;;13.20;99.90;;;;;;5124751;27;20055;-74
2022/09/24 02:58:21;;;;;;;41.60;18.70;;;13.10;99.90;;;;;;5111723;27;20058;-75
2022/09/24 03:00:47;;;;;;;40.83;18.75;;;13.20;99.90;;;;;;5111967;27;20035;-74
2022/09/24 03:03:13;;;;;;;44.92;20.13;;;13.10;99.90;;;;;;5128180;27;20741;-75
2022/09/24 03:05:38;;;;;;;42.78;19.48;;;13.10;99.90;;;;;;5112426;28;20531;-75
2022/09/24 03:08:06;;;;;;;47.35;20.88;;;13.10;99.90;;;;;;5111737;28;20377;-75
2022/09/24 03:10:33;;;;;;;44.03;19.45;;;13.10;99.90;;;;;;5112072;28;20118;-75
2022/09/24 03:12:59;;;;;;;40.55;19.98;;;13.10;99.90;;;;;;5111588;28;20070;-77
2022/09/24 03:15:25;;;;;;;45.30;20.13;;;13.10;99.90;;;;;;5097239;28;20443;-74
2022/09/24 03:17:51;;;;;;;43.08;20.10;;;13.10;99.90;;;;;;5128204;28;20043;-74
2022/09/24 03:20:16;;;;;;;43.47;20.38;;;13.10;99.90;;;;;;5127261;28;20043;-74
2022/09/24 03:22:42;;;;;;;44.42;20.58;;;13.10;99.90;;;;;;5129208;28;20078;-75
2022/09/24 03:25:09;;;;;;;51.17;22.33;;;13.10;99.90;;;;;;5129866;28;20096;-74
2022/09/24 03:27:35;;;;;;;44.47;20.63;;;13.10;99.90;;;;;;5111258;28;20068;-75
2022/09/24 03:32:47;;;;;;;51.20;20.73;;;13.10;99.90;;;;;;5109854;28;20134;-76
2022/09/24 03:35:14;;;;;;;47.03;20.35;;;13.10;99.90;;;;;;5129785;28;20051;-74
2022/09/24 03:37:42;;;;;;;51.72;21.23;;;13.10;99.90;;;;;;5130240;28;20043;-74
2022/09/24 03:40:08;;;;;;;45.10;21.02;;;13.10;99.90;;;;;;5114722;27;20086;-74
2022/09/24 03:42:33;;;;;;;;;;;13.10;99.90;;;;;;5134292;27;20042;-75
2022/09/24 03:44:59;;;;;;;45.95;20.85;;;13.10;99.90;;;;;;5133567;27;19915;-74
2022/09/24 03:47:25;;;;;;;50.80;21.95;;;13.10;99.90;;;;;;5113094;27;20050;-74
2022/09/24 03:49:52;;;;;;;54.50;21.95;;;13.10;99.90;;;;;;5099017;27;20043;-75
2022/09/24 03:52:18;;;;;;;47.10;21.13;;;13.10;99.90;;;;;;5115478;27;20171;-74
2022/09/24 03:54:43;;;;;;;49.92;21.83;;;13.10;99.90;;;;;;5128830;27;20140;-74
2022/09/24 03:57:13;;;;;;;49.20;21.75;;;13.10;99.90;;;;;;5116541;27;20121;-74
2022/09/24 03:59:39;;;;;;;44.65;20.77;;;13.20;99.90;;;;;;5134117;27;20052;-74
2022/09/24 04:02:05;;;;;;;;;;;13.20;99.90;;;;;;5132508;27;20047;-77
2022/09/24 04:04:31;;;;;;;46.45;20.73;;;13.20;99.90;;;;;;5103930;27;19941;-74
2022/09/24 04:06:57;;;;;;;43.88;20.70;;;13.20;99.90;;;;;;5103857;27;20043;-74
2022/09/24 04:09:22;;;;;;;45.78;20.23;;;13.20;99.90;;;;;;5113719;27;21096;-75
2022/09/24 04:11:48;;;;;;;46.00;20.85;;;13.20;99.90;;;;;;5110511;27;20122;-75
2022/09/24 04:14:14;;;;;;;42.47;19.02;;;13.20;99.90;;;;;;5114285;27;20119;-75
2022/09/24 04:16:40;;;;;;;45.42;19.83;;;13.20;99.90;;;;;;5114160;27;20074;-76
2022/09/24 04:19:06;;;;;;;;;;;13.20;99.90;;;;;;5083887;27;20084;-77
2022/09/24 04:21:32;;;;;;;44.55;19.73;;;13.20;99.90;;;;;;5115125;27;19919;-74
2022/09/24 04:23:58;;;;;;;43.92;19.25;;;13.20;99.90;;;;;;5133496;27;20537;-74
2022/09/24 04:26:24;;;;;;;38.70;19.05;;;13.20;99.90;;;;;;5114398;27;20050;-74
2022/09/24 04:28:50;;;;;;;46.47;19.65;;;13.20;99.90;;;;;;5115075;27;20471;-75
2022/09/24 04:31:15;;;;;;;41.08;18.42;;;13.20;99.90;;;;;;5093013;28;20035;-74
2022/09/24 04:33:41;;;;;;;38.55;18.02;;;13.20;99.90;;;;;;5122897;27;20063;-76
2022/09/24 04:36:07;;;;;;;37.85;17.67;;;13.20;99.90;;;;;;5124416;27;20039;-77
2022/09/24 04:38:32;;;;;;;39.97;18.17;;;13.20;99.90;;;;;;5100403;28;20047;-75
2022/09/24 04:41:06;;;;;;;39.88;18.20;;;13.20;99.90;;;;;;5095591;27;20048;-74
2022/09/24 04:43:32;;;;;;;41.60;18.20;;;13.20;99.90;;;;;;5132672;27;20043;-74
2022/09/24 04:45:58;;;;;;;39.17;17.85;;;13.20;99.90;;;;;;5113427;27;20043;-77
2022/09/24 04:48:24;;;;;;;;;;;13.20;99.90;;;;;;5131955;27;20043;-75
2022/09/24 04:50:49;;;;;;;41.70;17.70;;;13.20;99.90;;;;;;5132185;27;19922;-74
2022/09/24 04:53:16;;;;;;;42.17;19.08;;;13.20;99.90;;;;;;5113701;27;20050;-75
2022/09/24 04:55:43;;;;;;;37.70;16.63;;;13.20;99.90;;;;;;5128567;27;20260;-75
2022/09/24 04:58:09;;;;;;;34.47;15.77;;;13.30;99.90;;;;;;5132320;27;20059;-77
2022/09/24 05:00:35;;;;;;;;;;;13.30;99.90;;;;;;5132017;27;20047;-74
2022/09/24 05:03:04;;;;;;;36.00;17.13;;;13.30;99.90;;;;;;5112716;27;19919;-74
2022/09/24 05:05:31;;;;;;;40.03;17.27;;;13.30;99.90;;;;;;5131910;27;20039;-74
2022/09/24 05:07:58;;;;;;;36.97;17.48;;;13.20;99.90;;;;;;5132765;27;20038;-75
2022/09/24 05:10:25;;;;;;;36.17;16.58;;;13.30;99.90;;;;;;5131882;27;20075;-74
2022/09/24 05:12:51;;;;;;;36.15;17.02;;;13.20;99.90;;;;;;5114246;27;20134;-74
2022/09/24 05:15:18;;;;;;;36.63;15.90;;;13.20;99.90;;;;;;5113191;27;20122;-74
2022/09/24 05:17:45;;;;;;;36.55;17.75;;;13.20;99.90;;;;;;5094798;27;20043;-75
2022/09/24 05:20:11;;;;;;;41.22;17.63;;;13.30;99.90;;;;;;5113473;27;20042;-77
2022/09/24 05:22:44;;;;;;;37.13;15.77;;;13.20;99.90;;;;;;5114051;27;20039;-74
2022/09/24 05:25:11;;;;;;;36.72;16.33;;;13.20;99.90;;;;;;5131454;27;20038;-77
2022/09/24 05:27:42;;;;;;;36.90;17.00;;;13.20;99.90;;;;;;5131393;27;20039;-77
2022/09/24 05:30:08;;;;;;;34.42;15.50;;;13.20;99.90;;;;;;5132303;27;20071;-75
2022/09/24 05:32:35;;;;;;;34.03;15.57;;;13.20;99.90;;;;;;5129476;27;20062;-74
2022/09/24 05:35:01;;;;;;;37.25;16.98;;;13.20;99.90;;;;;;5114208;27;20096;-76
2022/09/24 05:37:27;;;;;;;37.15;16.33;;;13.20;99.90;;;;;;5131208;27;20540;-74
2022/09/24 05:39:53;;;;;;;34.60;15.88;;;13.20;99.90;;;;;;5132204;27;20031;-74
2022/09/24 05:42:19;;;;;;;33.22;14.77;;;13.20;99.90;;;;;;5096170;27;20507;-74
2022/09/24 05:44:45;;;;;;;35.83;16.13;;;13.20;99.90;;;;;;5113376;27;20062;-75
2022/09/24 05:47:10;;;;;;;33.53;14.95;;;13.20;99.90;;;;;;5122795;27;20050;-77
2022/09/24 05:49:37;;;;;;;35.58;15.55;;;13.20;99.90;;;;;;5113260;27;20513;-74
2022/09/24 05:52:03;;;;;;;32.22;14.13;;;13.30;99.90;;;;;;5132017;27;20043;-76
2022/09/24 05:54:29;;;;;;;33.33;14.50;;;13.20;99.90;;;;;;5141170;27;20034;-75
2022/09/24 05:56:54;;;;;;;37.38;15.82;;;13.30;99.90;;;;;;5135006;27;20039;-74
2022/09/24 05:59:20;;;;;;;40.67;16.15;;;13.30;99.90;;;;;;5130640;27;20039;-74
2022/09/24 06:01:47;;;;;;;35.28;15.98;;;13.30;99.90;;;;;;5129812;27;20039;-75
2022/09/24 06:04:13;;;;;;;37.55;16.40;;;13.20;99.90;;;;;;5130984;27;20043;-77
2022/09/24 06:06:39;;;;;;;38.65;15.95;;;13.30;99.90;;;;;;5130442;27;20093;-74
2022/09/24 06:09:07;;;;;;;33.70;16.20;;;13.30;99.90;;;;;;5113110;27;20405;-74
2022/09/24 06:11:33;;;;;;;35.95;14.90;;;13.30;99.90;;;;;;5112493;27;20082;-75
2022/09/24 06:14:01;;;;;;;;;;;13.30;99.90;;;;;;5141623;27;20039;-74
2022/09/24 06:16:27;;;;;;;38.17;17.38;;;13.30;99.90;;;;;;5128105;27;20354;-74
2022/09/24 06:18:53;;;;;;;36.42;14.88;;;13.30;99.90;;;;;;5112223;27;20062;-74
2022/09/24 06:21:18;;;;;;;36.63;14.98;;;13.30;99.90;;;;;;5130362;27;20043;-76
2022/09/24 06:23:44;;;;;;;36.38;16.15;;;13.40;99.90;;;;;;5113111;27;20372;-74
2022/09/24 06:26:12;;;;;;;36.95;16.25;;;13.40;99.90;;;;;;5131032;27;20097;-73
2022/09/24 06:28:39;;;;;;;36.35;14.90;;;13.40;99.90;;;;;;5107372;28;20166;-74
2022/09/24 06:31:05;;;;;;;34.85;14.32;;;13.40;99.90;;;;;;5091306;28;20043;-75
2022/09/24 06:33:31;;;;;;;;;;;13.40;99.90;;;;;;5109117;28;20051;-75
2022/09/24 06:36:02;;;;;;;37.95;15.20;;;13.40;99.90;;;;;;5102315;27;19919;-74
2022/09/24 06:38:28;;;;;;;36.55;14.68;;;13.50;99.90;;;;;;5095084;27;20055;-74
2022/09/24 06:41:02;;;;;;;36.63;15.63;;;13.50;99.90;;;;;;5112755;27;20122;-76
2022/09/24 06:43:28;;;;;;;38.13;15.10;;;13.50;99.90;;;;;;5111773;27;20175;-74
2022/09/24 06:45:55;;;;;;;37.60;17.10;;;13.50;99.90;;;;;;5129995;27;20134;-77
2022/09/24 06:48:21;;;;;;;38.42;16.60;;;13.50;99.90;;;;;;5110413;27;20035;-77
2022/09/24 06:50:47;;;;;;;37.78;15.82;;;13.50;99.90;;;;;;5092468;28;20043;-71
2022/09/24 06:53:13;;;;;;;39.28;14.60;;;13.50;99.90;;;;;;5110546;28;20487;-89
2022/09/24 06:55:39;;;;;;;38.75;15.63;;;13.60;99.90;;;;;;5120014;27;20036;-82
2022/09/24 06:58:06;;;;;;;;;;;13.60;99.90;;;;;;5125028;27;20391;-85
2022/09/24 07:00:32;;;;;;;41.88;15.73;;;13.60;99.90;;;;;;5074759;28;19919;-85
2022/09/24 07:02:58;;;;;;;35.53;15.32;;;13.60;99.90;;;;;;5104719;27;20035;-83
2022/09/24 07:05:24;;;;;;;35.65;14.75;;;13.60;99.90;;;;;;5119516;27;20049;-83
2022/09/24 07:07:49;;;;;;;35.80;15.88;;;13.60;99.90;;;;;;5104450;28;20097;-77
2022/09/24 07:10:16;;;;;;;33.83;15.50;;;13.60;99.90;;;;;;5075176;28;20048;-77
2022/09/24 07:12:41;;;;;;;;;;;13.70;99.90;;;;;;5091056;28;20036;-75
2022/09/24 07:15:08;;;;;;;33.00;14.73;;;13.60;99.90;;;;;;5113659;28;19916;-74
2022/09/24 07:17:34;;;;;;;32.20;14.35;;;13.60;99.90;;;;;;5114471;27;20035;-74
2022/09/24 07:20:00;;;;;;;34.85;14.85;;;13.60;99.90;;;;;;5134879;27;20125;-74
2022/09/24 07:22:25;;;;;;;37.83;16.33;;;13.70;99.90;;;;;;5133708;27;20069;-75
2022/09/24 07:24:51;;;;;;;36.45;14.88;;;13.70;99.90;;;;;;5116545;27;20640;-76
2022/09/24 07:27:20;;;;;;;34.83;14.48;;;13.80;99.90;;;;;;5134364;27;20468;-75
2022/09/24 07:29:46;;;;;;;35.47;15.57;;;13.70;99.90;;;;;;5114404;27;20511;-74
2022/09/24 07:32:15;;;;;;;36.13;15.05;;;13.70;99.90;;;;;;5120398;27;20093;-77
2022/09/24 07:34:40;;;;;;;36.15;15.93;;;13.70;99.90;;;;;;5131836;27;20130;-75
2022/09/24 07:37:06;;;;;;;35.00;16.33;;;13.80;99.90;;;;;;5116262;27;20225;-74
2022/09/24 07:39:32;;;;;;;40.42;16.40;;;13.80;99.90;;;;;;5133570;27;20047;-76
2022/09/24 07:42:01;;;;;;;34.38;15.13;;;13.80;99.90;;;;;;5116110;27;20047;-74
2022/09/24 07:44:28;;;;;;;39.67;15.20;;;13.80;99.90;;;;;;5110453;27;20126;-75
2022/09/24 07:46:54;;;;;;;37.70;15.77;;;13.70;99.90;;;;;;5114246;27;20376;-73
2022/09/24 07:49:20;;;;;;;38.97;15.43;;;13.70;99.90;;;;;;5133757;27;20051;-73
2022/09/24 07:51:46;;;;;;;37.50;15.57;;;13.70;99.90;;;;;;5133709;27;20057;-76
2022/09/24 07:54:12;;;;;;;38.97;15.45;;;13.70;99.90;;;;;;5101097;27;20468;-75
2022/09/24 07:56:38;;;;;;;37.83;15.45;;;13.70;99.90;;;;;;5124034;27;20077;-72
2022/09/24 07:59:09;;;;;;;36.95;15.82;;;13.70;99.90;;;;;;5130328;27;20039;-74
2022/09/24 08:01:36;;;;;;;42.20;17.48;;;13.70;99.90;;;;;;5132584;27;20047;-73
2022/09/24 08:04:03;;;;;;;37.55;16.50;;;13.60;99.90;;;;;;5114825;27;20090;-75
2022/09/24 08:06:32;;;;;;;38.28;15.40;;;13.60;99.90;;;;;;5133281;27;20141;-75
2022/09/24 08:08:58;;;;;;;41.60;17.23;;;13.60;99.90;;;;;;5115677;27;20491;-76
2022/09/24 08:11:24;;;;;;;37.65;15.98;;;13.60;99.90;;;;;;5115272;27;20043;-79
2022/09/24 08:13:50;;;;;;;42.33;15.63;;;13.60;99.90;;;;;;5127111;27;20035;-78
2022/09/24 08:16:16;;;;;;;40.83;16.63;;;13.60;99.90;;;;;;5138194;27;20066;-73
2022/09/24 08:18:42;;;;;;;40.63;15.57;;;13.60;99.90;;;;;;5101575;27;20122;-75
2022/09/24 08:21:10;;;;;;;36.55;15.80;;;13.60;99.90;;;;;;5115465;27;20038;-74
2022/09/24 08:23:38;;;;;;;40.25;15.20;;;13.60;99.90;;;;;;5150676;27;20035;-75
2022/09/24 08:26:05;;;;;;;35.83;15.73;;;13.60;99.90;;;;;;5152222;27;20122;-75
2022/09/24 08:28:31;;;;;;;36.92;14.30;;;13.60;99.90;;;;;;5151555;27;20430;-75
2022/09/24 08:30:59;;;;;;;33.63;14.15;;;13.60;99.90;;;;;;5150996;27;20038;-77
2022/09/24 08:33:30;;;;;;;38.15;15.88;;;13.60;99.90;;;;;;5150810;27;20047;-79
2022/09/24 08:35:58;;;;;;;36.20;14.55;;;13.60;99.90;;;;;;5125440;27;20084;-74
2022/09/24 08:38:24;;;;;;;29.75;12.63;;;13.70;99.90;;;;;;5149909;27;20055;-74
2022/09/24 08:41:03;;;;;;;31.77;13.75;;;13.70;99.90;;;;;;5128563;27;20042;-77
2022/09/24 08:43:29;;;;;;;30.20;12.85;;;13.70;99.90;;;;;;5149019;27;20068;-78
2022/09/24 08:48:51;;;;;;;29.17;12.38;;;13.70;99.90;;;;;;5150658;27;20103;-74
2022/09/24 08:51:19;;;;;;;33.83;12.60;;;13.80;99.90;;;;;;5150149;27;20045;-75
2022/09/24 08:54:08;;;;;;;27.70;12.45;;;13.80;99.90;;;;;;5113850;27;20049;-76
2022/09/24 08:56:38;;;;;;;29.85;13.15;;;13.80;99.90;;;;;;5149786;27;20043;-75
2022/09/24 08:59:45;;;;;;;27.60;12.27;;;13.80;99.90;;;;;;5132146;27;20047;-78
2022/09/24 09:02:35;;;;;;;25.55;10.85;;;13.80;99.90;;;;;;5040087;28;20127;-74
2022/09/24 09:05:38;;;;;;;27.50;11.60;;;13.90;99.90;;;;;;5038623;28;20482;-74
2022/09/24 09:08:12;;;;;;;26.70;11.43;;;13.90;99.90;;;;;;5140906;27;20114;-74
2022/09/24 09:10:42;;;;;;;24.77;11.35;;;13.90;99.90;;;;;;5151314;27;20115;-76
2022/09/24 09:13:24;;;;;;;23.98;10.73;;;14.00;99.90;;;;;;5113765;27;20043;-77
2022/09/24 09:16:05;;;;;;;24.75;10.15;;;14.00;99.90;;;;;;5126136;27;20042;-75
2022/09/24 09:18:40;;;;;;;27.75;10.85;;;14.10;99.90;;;;;;5127562;27;20046;-80
2022/09/24 09:21:19;;;;;;;21.05;9.55;;;14.10;99.90;;;;;;5133177;27;20055;-75
2022/09/24 09:23:49;;;;;;;24.30;10.05;;;14.20;99.90;;;;;;5094083;28;20056;-75
2022/09/24 09:26:20;;;;;;;24.25;10.13;;;14.20;99.90;;;;;;5117270;27;20477;-75
2022/09/24 09:28:47;;;;;;;26.33;10.30;;;14.30;99.90;;;;;;5131801;27;20043;-75
2022/09/24 09:31:33;;;;;;;22.00;9.02;;;14.30;99.90;;;;;;5110183;28;20059;-76
2022/09/24 09:34:42;;;;;;;18.50;8.35;;;14.40;99.90;;;;;;5099536;27;20051;-75
2022/09/24 09:37:33;;;;;;;16.83;7.03;;;14.60;99.90;;;;;;5131963;27;20585;-75
2022/09/24 09:40:13;;;;;;;15.35;6.88;;;14.60;99.90;;;;;;5130916;27;20057;-79
2022/09/24 09:42:39;;;;;;;19.70;7.07;;;14.70;99.90;;;;;;5113580;27;20480;-75
2022/09/24 09:45:28;;;;;;;16.70;6.90;;;14.80;99.90;;;;;;5132565;27;20035;-75
2022/09/24 09:47:56;;;;;;;15.10;5.95;;;14.80;99.90;;;;;;5123012;27;20119;-80
2022/09/24 09:50:25;;;;;;;16.27;5.30;;;14.80;99.90;;;;;;5103575;27;20035;-76
2022/09/24 09:52:50;;;;;;;14.50;6.15;;;14.80;99.90;;;;;;5142484;27;20046;-74
2022/09/24 09:55:36;;;;;;;14.38;5.57;;;14.70;99.90;;;;;;5144194;27;20034;-74
2022/09/24 09:58:14;;;;;;;14.85;5.28;;;14.70;99.90;;;;;;5134293;27;20054;-77
2022/09/24 10:00:40;;;;;;;14.57;5.00;;;14.70;99.90;;;;;;5117328;27;20036;-73
2022/09/24 10:03:30;;;;;;;8.90;3.67;;;14.70;99.90;;;;;;5117543;27;20043;-76
2022/09/24 10:06:06;;;;;;;8.15;3.45;;;14.70;99.90;;;;;;5142617;27;20042;-75
2022/09/24 10:08:32;;;;;;;11.18;3.30;;;14.70;99.90;;;;;;5111256;27;20034;-75
2022/09/24 10:10:58;;;;;;;;;;;14.70;99.90;;;;;;5140253;27;20616;-76
2022/09/24 10:13:25;;;;;;;10.85;2.50;;;14.70;99.90;;;;;;5145206;27;19919;-74
2022/09/24 10:15:52;;;;;;;9.93;2.45;;;14.70;99.90;;;;;;5129448;27;20043;-78
2022/09/24 10:18:31;;;;;;;13.32;2.65;;;14.70;99.90;;;;;;5147350;27;20123;-76
2022/09/24 10:21:01;;;;;;;8.35;2.50;;;14.70;99.90;;;;;;5150055;27;20134;-74
2022/09/24 10:23:42;;;;;;;15.43;3.60;;;14.70;99.90;;;;;;5114852;27;20050;-73
2022/09/24 10:26:09;;;;;;;9.38;2.20;;;14.80;99.90;;;;;;5129389;27;20038;-76
2022/09/24 10:31:30;;;;;;;9.35;1.90;;;14.90;99.90;;;;;;5142806;27;20050;-75
2022/09/24 10:33:58;;;;;;;12.88;2.33;;;15.00;99.90;;;;;;5143732;27;20445;-74
2022/09/24 10:36:26;;;;;;;13.60;2.35;;;15.00;99.90;;;;;;5147006;27;20092;-74
2022/09/24 10:39:01;;;;;;;12.23;2.20;;;15.10;99.90;;;;;;5129842;27;20035;-74
2022/09/24 10:41:28;;;;;;;7.88;1.88;;;15.30;99.90;;;;;;5146611;27;20092;-75
2022/09/24 10:43:56;;;;;;;10.63;2.15;;;15.40;99.90;;;;;;5144328;27;20118;-76
2022/09/24 10:46:41;;;;;;;6.65;1.50;;;15.50;99.90;;;;;;5103646;27;20057;-74
2022/09/24 10:49:32;;;;;;;11.30;2.83;;;15.50;99.90;;;;;;5125401;27;20050;-76
2022/09/24 10:52:11;;;;;;;10.57;2.33;;;15.40;99.90;;;;;;5118626;27;20525;-73
2022/09/24 10:54:42;;;;;;;11.57;1.85;;;15.50;99.90;;;;;;5144407;27;20031;-73
2022/09/24 10:57:54;;;;;;;4.95;1.77;;;15.50;99.90;;;;;;5146559;27;20505;-73
2022/09/24 11:00:23;;;;;;;4.57;1.75;;;15.40;99.90;;;;;;5065847;28;20048;-74
2022/09/24 11:03:12;;;;;;;8.82;1.95;;;15.40;99.90;;;;;;5062795;28;20059;-73
2022/09/24 11:05:51;;;;;;;11.32;1.98;;;15.50;99.90;;;;;;5099737;28;20047;-74
2022/09/24 11:08:37;;;;;;;6.40;1.63;;;15.60;99.90;;;;;;5131144;27;20042;-74
2022/09/24 11:11:13;;;;;;;9.05;1.90;;;15.70;99.90;;;;;;5130166;28;20742;-74
2022/09/24 11:13:58;;;;;;;9.07;2.38;;;15.90;99.90;;;;;;5112398;28;20156;-74
2022/09/24 11:16:43;;;;;;;7.80;2.10;;;16.00;99.90;;;;;;5094714;28;20050;-73
2022/09/24 11:19:09;;;;;;;7.18;1.83;;;16.20;99.90;;;;;;5129912;28;20051;-73
2022/09/24 11:21:56;;;;;;;8.00;2.08;;;16.20;99.90;;;;;;5130287;28;20039;-73
2022/09/24 11:24:43;;;;;;;9.15;1.50;;;16.30;99.90;;;;;;5124459;28;20054;-74
2022/09/24 11:27:38;;;;;;;9.50;1.50;;;16.30;99.90;;;;;;5130611;28;20130;-73
2022/09/24 11:30:18;;;;;;;7.20;1.73;;;16.30;99.90;;;;;;5130185;28;20227;-73
2022/09/24 11:33:02;;;;;;;8.88;1.77;;;16.20;99.90;;;;;;5128790;28;20047;-74
2022/09/24 11:36:05;;;;;;;6.80;1.35;;;16.20;99.90;;;;;;5112640;28;20055;-73
2022/09/24 11:38:51;;;;;;;10.18;1.77;;;16.20;99.90;;;;;;5098335;28;20036;-73
2022/09/24 11:41:42;;;;;;;5.10;1.50;;;16.10;99.90;;;;;;5130992;28;20043;-71
2022/09/24 11:44:28;;;;;;;6.47;1.70;;;16.10;99.90;;;;;;5123502;28;20073;-71
2022/09/24 11:47:15;;;;;;;4.38;1.08;;;16.10;99.90;;;;;;5096445;28;20057;-71
2022/09/24 11:49:43;;;;;;;6.95;1.90;;;16.00;99.90;;;;;;5131140;28;20108;-71
2022/09/24 11:52:27;;;;;;;4.18;1.40;;;16.00;99.90;;;;;;5129965;28;20043;-71
2022/09/24 11:54:59;;;;;;;7.32;1.58;;;15.90;99.90;;;;;;5137582;27;20088;-71
2022/09/24 11:57:30;;;;;;;6.75;1.55;;;15.90;99.90;;;;;;5123852;27;20068;-71
2022/09/24 12:00:20;;;;;;;4.45;1.35;;;15.90;99.90;;;;;;5125650;27;20074;-71
2022/09/24 12:02:50;;;;;;;5.25;1.20;;;15.90;99.90;;;;;;5114898;27;20177;-72
2022/09/24 12:05:37;;;;;;;9.48;1.75;;;16.00;99.90;;;;;;5144843;27;20159;-71
2022/09/24 12:08:16;;;;;;;8.07;1.65;;;15.90;99.90;;;;;;5128100;27;20046;-71
2022/09/24 12:10:51;;;;;;;6.28;1.63;;;15.80;99.90;;;;;;5152522;27;20034;-71
2022/09/24 12:13:28;;;;;;;10.15;1.75;;;15.80;99.90;;;;;;5152447;27;20087;-71
2022/09/24 12:15:59;;;;;;;10.10;1.95;;;15.80;99.90;;;;;;5152907;27;20031;-72
2022/09/24 12:18:34;;;;;;;5.93;1.30;;;15.70;99.90;;;;;;5153324;27;20095;-71
2022/09/24 12:21:07;;;;;;;7.85;1.80;;;15.60;99.90;;;;;;5118452;27;20047;-71
2022/09/24 12:23:38;;;;;;;8.05;1.00;;;15.60;99.90;;;;;;5134685;27;20483;-76
2022/09/24 12:26:05;;;;;;;5.63;1.23;;;15.60;99.90;;;;;;5120744;27;20047;-71
2022/09/24 12:34:51;;;;;;;8.65;1.90;;;15.70;99.90;;;;;;5111828;27;20851;-74
2022/09/24 12:37:37;;;;;;;6.75;1.08;;;15.70;99.90;;;;;;5113367;27;20141;-71
2022/09/24 12:40:35;;;;;;;8.25;1.42;;;15.80;99.90;;;;;;5112754;28;20054;-72
2022/09/24 12:43:03;;;;;;;;;;;15.80;99.90;;;;;;5111965;28;20047;-71
2022/09/24 12:45:29;;;;;;;7.07;1.25;;;15.90;99.90;;;;;;5112033;28;19919;-72
2022/09/24 12:48:00;;;;;;;8.95;1.50;;;15.90;99.90;;;;;;5109612;28;20044;-71
2022/09/24 12:50:32;;;;;;;7.57;1.83;;;15.80;99.90;;;;;;5113320;28;20101;-71
2022/09/24 12:52:58;;;;;;;5.30;1.30;;;15.80;99.90;;;;;;5097444;28;20047;-72
2022/09/24 12:55:27;;;;;;;3.45;1.30;;;15.80;99.90;;;;;;5097590;28;20043;-71
2022/09/24 12:57:57;;;;;;;6.07;1.40;;;15.70;99.90;;;;;;5080946;28;20062;-72
2022/09/24 13:00:42;;;;;;;4.60;1.10;;;15.70;99.90;;;;;;5077222;28;20450;-72
2022/09/24 13:03:32;;;;;;;4.57;1.13;;;15.70;99.90;;;;;;5110556;27;20053;-72
2022/09/24 13:05:59;;;;;;;6.88;1.33;;;15.80;99.90;;;;;;5114851;27;20089;-71
2022/09/24 13:08:34;;;;;;;4.70;1.10;;;15.80;99.90;;;;;;5111784;28;20484;-71
2022/09/24 13:11:06;;;;;;;6.28;1.00;;;15.80;99.90;;;;;;5111101;28;20080;-71
2022/09/24 13:13:39;;;;;;;4.25;2.00;;;15.80;99.90;;;;;;5112659;28;20035;-71
2022/09/24 13:16:14;;;;;;;7.03;1.23;;;15.80;99.90;;;;;;5089713;28;20028;-71